Time;durP1;ratioP1;P1;durP2;ratioP2;P2;SDS_P1;SDS_P2;PMS_P1;PMS_P2;Temp;Humidity;BMP_temperature;BMP_pressure;BME280_temperature;BME280_humidity;BME280_pressure;Samples;Min_cycle;Max_cycle;Signal;HPM_P1;HPM_P2
2022/09/23 00:01:52;;;;;;;1.67;1.57;;;10.00;80.60;;;;;;5015068;28;20259;-89
2022/09/23 00:04:18;;;;;;;4.53;1.97;;;9.80;80.80;;;;;;5014996;28;20177;-89
2022/09/23 00:06:44;;;;;;;4.20;1.77;;;9.70;81.00;;;;;;5015665;28;20174;-89
2022/09/23 00:09:10;;;;;;;2.33;1.40;;;9.60;81.20;;;;;;5014947;28;20602;-89
2022/09/23 00:11:36;;;;;;;2.97;2.00;;;9.70;81.40;;;;;;5016255;28;20212;-89
2022/09/23 00:14:01;;;;;;;2.70;1.80;;;9.60;81.40;;;;;;5014746;28;20185;-89
2022/09/23 00:16:33;;;;;;;2.57;1.93;;;9.60;81.30;;;;;;5014680;28;20181;-89
2022/09/23 00:19:00;;;;;;;2.77;2.07;;;9.50;81.40;;;;;;5016091;28;20189;-89
2022/09/23 00:21:27;;;;;;;2.13;1.93;;;9.50;81.50;;;;;;5014806;28;20294;-89
2022/09/23 00:23:52;;;;;;;2.00;1.80;;;9.50;81.70;;;;;;5014564;28;20173;-89
2022/09/23 00:26:20;;;;;;;3.17;2.10;;;9.50;81.90;;;;;;5015712;28;20231;-89
2022/09/23 00:28:47;;;;;;;3.97;1.87;;;9.50;82.00;;;;;;5014508;28;20189;-89
2022/09/23 00:31:18;;;;;;;4.13;2.03;;;9.40;82.10;;;;;;5014423;28;20699;-89
2022/09/23 00:33:44;;;;;;;4.17;2.00;;;9.40;82.30;;;;;;5014393;28;20364;-89
2022/09/23 00:36:15;;;;;;;1.97;1.87;;;9.40;82.50;;;;;;5013282;28;20656;-89
2022/09/23 00:38:41;;;;;;;2.93;2.03;;;9.30;82.30;;;;;;5014988;28;20201;-89
2022/09/23 00:41:07;;;;;;;3.33;1.70;;;9.30;82.40;;;;;;5014353;28;20193;-89
2022/09/23 00:43:42;;;;;;;1.90;1.70;;;9.20;82.40;;;;;;5014380;28;20196;-89
2022/09/23 00:46:13;;;;;;;2.20;1.80;;;9.20;82.60;;;;;;5015617;28;20525;-89
2022/09/23 00:48:41;;;;;;;2.13;1.93;;;9.10;82.70;;;;;;5015497;28;20191;-89
2022/09/23 00:51:09;;;;;;;2.73;2.00;;;9.10;82.80;;;;;;5014114;28;20205;-89
2022/09/23 00:53:35;;;;;;;3.13;1.90;;;9.00;82.80;;;;;;5015637;28;20177;-89
2022/09/23 00:56:06;;;;;;;1.87;1.60;;;9.00;82.80;;;;;;5014235;28;20276;-89
2022/09/23 00:58:35;;;;;;;4.50;1.83;;;8.90;82.90;;;;;;5015418;28;20196;-89
2022/09/23 01:01:02;;;;;;;3.00;1.73;;;8.90;82.90;;;;;;5014963;28;20682;-89
2022/09/23 01:03:28;;;;;;;3.17;1.90;;;8.90;82.80;;;;;;5015123;28;20260;-89
2022/09/23 01:05:55;;;;;;;2.53;1.60;;;8.80;82.80;;;;;;5013903;28;20181;-89
2022/09/23 01:08:22;;;;;;;3.43;1.60;;;8.80;82.60;;;;;;5013988;28;20181;-89
2022/09/23 01:11:05;;;;;;;3.93;1.70;;;8.70;82.50;;;;;;5013598;28;20203;-89
2022/09/23 01:13:42;;;;;;;2.57;1.50;;;8.70;82.50;;;;;;5013686;28;20623;-89
2022/09/23 01:16:35;;;;;;;1.97;1.83;;;8.80;82.50;;;;;;5015144;28;20209;-89
2022/09/23 01:19:35;;;;;;;2.80;1.90;;;8.70;82.40;;;;;;5014685;28;20192;-89
2022/09/23 01:22:20;;;;;;;1.90;1.70;;;8.70;82.40;;;;;;5010610;28;20688;-89
2022/09/23 01:25:00;;;;;;;2.10;1.90;;;8.70;82.60;;;;;;5014662;28;20589;-89
2022/09/23 01:28:08;;;;;;;5.77;2.07;;;8.70;82.70;;;;;;5014660;28;20157;-89
2022/09/23 01:30:46;;;;;;;2.73;1.80;;;8.60;82.80;;;;;;5013271;28;20557;-89
2022/09/23 01:33:21;;;;;;;1.93;1.60;;;8.60;82.90;;;;;;5014595;28;20674;-89
2022/09/23 01:36:10;;;;;;;3.20;1.90;;;8.50;82.90;;;;;;5013311;28;20169;-89
2022/09/23 01:38:59;;;;;;;2.43;2.03;;;8.50;83.00;;;;;;5013211;28;20220;-89
2022/09/23 01:41:47;;;;;;;3.63;1.83;;;8.50;82.90;;;;;;5013392;28;20232;-89
2022/09/23 01:44:28;;;;;;;2.67;2.33;;;8.40;83.00;;;;;;5013049;28;20183;-89
2022/09/23 01:47:14;;;;;;;2.90;1.83;;;8.30;83.20;;;;;;5012862;28;20196;-89
2022/09/23 01:49:53;;;;;;;2.20;2.00;;;8.30;83.40;;;;;;5014277;28;20157;-89
2022/09/23 01:52:27;;;;;;;1.77;1.67;;;8.30;83.60;;;;;;5012915;28;20202;-89
2022/09/23 01:55:36;;;;;;;5.07;2.10;;;8.20;83.60;;;;;;5014485;28;20169;-89
2022/09/23 01:58:27;;;;;;;2.93;2.03;;;8.10;83.70;;;;;;4934780;29;20188;-89
2022/09/23 02:00:59;;;;;;;2.73;1.80;;;8.00;83.80;;;;;;5000183;28;20271;-89
2022/09/23 02:03:40;;;;;;;3.20;2.07;;;8.00;84.00;;;;;;5012741;28;20558;-89
2022/09/23 02:06:23;;;;;;;2.87;2.30;;;8.00;84.20;;;;;;5013951;28;20162;-89
2022/09/23 02:09:01;;;;;;;2.97;1.77;;;8.00;84.40;;;;;;5014203;28;20158;-89
2022/09/23 02:11:29;;;;;;;2.27;2.10;;;8.00;84.60;;;;;;5012527;28;20244;-89
2022/09/23 02:13:58;;;;;;;2.37;2.17;;;8.00;84.60;;;;;;5012588;28;20698;-89
2022/09/23 02:16:35;;;;;;;1.83;1.50;;;8.00;84.50;;;;;;5013773;28;20208;-89
2022/09/23 02:19:00;;;;;;;6.60;2.00;;;8.10;84.40;;;;;;5012547;28;20193;-89
2022/09/23 02:21:33;;;;;;;4.80;2.00;;;8.10;84.20;;;;;;5013891;28;20196;-89
2022/09/23 02:24:08;;;;;;;2.93;1.73;;;8.00;84.00;;;;;;5013893;28;20181;-89
2022/09/23 02:27:06;;;;;;;2.20;1.70;;;8.10;83.80;;;;;;5012410;28;20260;-89
2022/09/23 02:30:02;;;;;;;4.23;1.73;;;8.00;83.60;;;;;;5012409;28;20239;-89
2022/09/23 02:32:33;;;;;;;2.30;1.87;;;8.10;83.60;;;;;;4999524;28;20821;-89
2022/09/23 02:35:11;;;;;;;2.10;1.83;;;8.00;83.40;;;;;;5012282;28;20181;-89
2022/09/23 02:38:03;;;;;;;3.97;2.00;;;8.00;83.20;;;;;;5012307;28;20165;-89
2022/09/23 02:40:56;;;;;;;2.50;1.70;;;8.00;83.10;;;;;;5013392;28;20189;-89
2022/09/23 02:43:32;;;;;;;6.17;1.90;;;8.00;83.00;;;;;;5011834;28;20239;-89
2022/09/23 02:45:59;;;;;;;2.00;1.80;;;7.90;82.90;;;;;;5012240;28;20158;-89
2022/09/23 02:48:32;;;;;;;2.80;1.80;;;8.00;82.80;;;;;;5012305;28;20177;-89
2022/09/23 02:51:01;;;;;;;2.50;1.90;;;7.90;82.60;;;;;;5012187;28;20288;-89
2022/09/23 02:53:27;;;;;;;2.30;1.90;;;7.90;82.50;;;;;;5013344;28;20196;-89
2022/09/23 02:55:53;;;;;;;2.10;1.67;;;7.90;82.40;;;;;;5012164;28;20173;-89
2022/09/23 02:58:18;;;;;;;3.43;1.83;;;7.80;82.40;;;;;;5012746;28;20669;-89
2022/09/23 03:01:09;;;;;;;1.70;1.60;;;7.80;82.40;;;;;;5015992;28;20197;-89
2022/09/23 03:04:03;;;;;;;4.70;2.03;;;7.80;82.50;;;;;;5017363;28;20157;-89
2022/09/23 03:06:55;;;;;;;3.83;2.30;;;7.80;82.70;;;;;;5016116;28;20651;-89
2022/09/23 03:09:56;;;;;;;2.33;2.13;;;7.80;82.80;;;;;;5016004;28;20168;-89
2022/09/23 03:12:51;;;;;;;2.20;1.83;;;7.80;83.00;;;;;;5011380;28;20687;-89
2022/09/23 03:15:21;;;;;;;2.23;2.03;;;7.80;83.00;;;;;;4981692;28;20181;-89
2022/09/23 03:18:07;;;;;;;2.50;2.00;;;7.80;82.90;;;;;;5015745;28;20196;-89
2022/09/23 03:20:54;;;;;;;1.90;1.73;;;7.70;82.90;;;;;;5015661;28;20189;-89
2022/09/23 03:23:27;;;;;;;1.77;1.60;;;7.70;82.90;;;;;;5016965;28;20165;-89
2022/09/23 03:25:55;;;;;;;8.40;2.17;;;7.70;82.80;;;;;;5017001;28;20563;-89
2022/09/23 03:28:24;;;;;;;4.53;1.97;;;7.70;82.80;;;;;;5015629;28;20177;-89
2022/09/23 03:30:51;;;;;;;4.20;1.90;;;7.80;82.80;;;;;;5015636;28;20197;-89
2022/09/23 03:33:20;;;;;;;1.83;1.73;;;7.70;82.90;;;;;;5015498;28;20177;-89
2022/09/23 03:38:53;;;;;;;2.33;2.00;;;7.80;82.90;;;;;;5017142;28;20196;-89
2022/09/23 03:41:28;;;;;;;5.60;2.47;;;7.80;83.20;;;;;;5016588;28;20205;-89
2022/09/23 03:43:57;;;;;;;4.00;2.40;;;7.80;83.60;;;;;;5015598;28;20507;-89
2022/09/23 03:46:25;;;;;;;2.70;2.10;;;7.90;83.80;;;;;;5015629;28;20636;-89
2022/09/23 03:48:50;;;;;;;4.70;2.17;;;8.00;83.70;;;;;;5015218;28;20181;-89
2022/09/23 03:51:22;;;;;;;5.27;2.57;;;8.10;83.80;;;;;;5016397;28;20247;-89
2022/09/23 03:53:49;;;;;;;4.00;2.53;;;8.10;83.80;;;;;;5015190;28;20177;-89
2022/09/23 03:56:15;;;;;;;2.90;2.27;;;8.10;83.80;;;;;;5016316;28;20178;-89
2022/09/23 03:58:41;;;;;;;5.90;2.40;;;8.20;83.80;;;;;;5016291;28;20202;-89
2022/09/23 04:01:06;;;;;;;4.27;2.60;;;8.30;84.10;;;;;;5016046;28;20204;-89
2022/09/23 04:03:32;;;;;;;5.20;2.20;;;8.30;84.10;;;;;;5015059;28;20176;-89
2022/09/23 04:05:58;;;;;;;3.40;2.57;;;8.30;84.00;;;;;;5014899;28;20177;-89
2022/09/23 04:08:23;;;;;;;3.30;2.43;;;8.30;84.10;;;;;;5014860;28;20651;-89
2022/09/23 04:10:49;;;;;;;3.47;2.10;;;8.30;84.30;;;;;;5015892;28;20225;-89
2022/09/23 04:13:15;;;;;;;7.73;2.50;;;8.40;84.30;;;;;;5014767;28;20209;-89
2022/09/23 04:15:40;;;;;;;5.23;3.00;;;8.50;84.40;;;;;;5016009;28;20166;-89
2022/09/23 04:18:06;;;;;;;5.13;2.63;;;8.50;84.50;;;;;;5014705;28;20220;-89
2022/09/23 04:20:31;;;;;;;5.53;2.70;;;8.50;84.50;;;;;;5014511;28;20205;-89
2022/09/23 04:22:57;;;;;;;6.50;2.80;;;8.60;84.40;;;;;;5014662;28;20177;-89
2022/09/23 04:25:22;;;;;;;3.40;2.83;;;8.60;84.40;;;;;;5015756;28;20667;-89
2022/09/23 04:27:48;;;;;;;5.10;2.77;;;8.60;84.30;;;;;;5014449;28;20177;-89
2022/09/23 04:30:13;;;;;;;6.70;2.50;;;8.60;84.30;;;;;;5015723;28;20266;-89
2022/09/23 04:32:39;;;;;;;3.03;2.40;;;8.50;84.30;;;;;;5015638;28;20202;-89
2022/09/23 04:35:06;;;;;;;3.60;2.40;;;8.60;84.30;;;;;;5014460;28;20759;-89
2022/09/23 04:37:31;;;;;;;5.30;3.23;;;8.50;84.20;;;;;;5014311;28;20178;-89
2022/09/23 04:39:57;;;;;;;4.57;2.47;;;8.50;84.30;;;;;;5014239;28;20212;-89
2022/09/23 04:42:23;;;;;;;4.43;2.77;;;8.50;84.20;;;;;;5015431;28;20192;-89
2022/09/23 04:44:48;;;;;;;6.60;2.43;;;8.50;84.20;;;;;;5014283;28;20173;-89
2022/09/23 04:47:14;;;;;;;7.03;2.77;;;8.50;84.30;;;;;;5015423;28;20181;-89
2022/09/23 04:49:40;;;;;;;4.17;2.50;;;8.50;84.30;;;;;;5015397;28;20180;-89
2022/09/23 04:52:06;;;;;;;4.63;2.60;;;8.50;84.30;;;;;;5014079;28;20201;-89
2022/09/23 04:54:31;;;;;;;4.33;2.33;;;8.50;84.30;;;;;;5013972;28;20177;-89
2022/09/23 04:56:57;;;;;;;3.20;2.53;;;8.50;84.20;;;;;;5014070;28;20665;-89
2022/09/23 04:59:23;;;;;;;6.20;2.70;;;8.40;84.20;;;;;;5013843;28;20283;-89
2022/09/23 05:01:50;;;;;;;6.40;2.53;;;8.50;84.10;;;;;;5031316;22;20310;-89
2022/09/23 05:04:16;;;;;;;7.30;2.47;;;8.50;84.10;;;;;;4995702;28;20177;-89
2022/09/23 05:06:44;;;;;;;3.30;2.70;;;8.50;84.10;;;;;;4978313;28;20267;-89
2022/09/23 05:09:14;;;;;;;4.67;2.47;;;8.50;84.10;;;;;;4995731;28;20715;-89
2022/09/23 05:11:39;;;;;;;5.17;2.80;;;8.50;84.20;;;;;;4978733;28;20202;-89
2022/09/23 05:14:05;;;;;;;4.87;2.93;;;8.50;84.20;;;;;;4978635;28;20275;-90
2022/09/23 05:16:30;;;;;;;3.20;2.50;;;8.60;84.30;;;;;;4978692;28;20199;-91
2022/09/23 05:18:56;;;;;;;3.27;2.97;;;8.60;84.30;;;;;;4978349;28;20635;-89
2022/09/23 05:21:23;;;;;;;5.77;3.30;;;8.60;84.40;;;;;;4978566;28;20647;-90
2022/09/23 05:23:55;;;;;;;5.20;2.53;;;8.60;84.50;;;;;;4995617;28;20202;-91
2022/09/23 05:26:24;;;;;;;3.93;2.40;;;8.60;84.50;;;;;;4978035;28;20182;-90
2022/09/23 05:28:50;;;;;;;5.93;3.00;;;8.60;84.50;;;;;;4978081;28;20210;-90
2022/09/23 05:31:18;;;;;;;6.93;2.70;;;8.70;84.40;;;;;;4978061;28;20233;-90
2022/09/23 05:33:52;;;;;;;5.57;2.73;;;8.70;84.50;;;;;;4977769;28;20182;-90
2022/09/23 05:36:20;;;;;;;5.63;2.77;;;8.70;84.50;;;;;;4995320;28;20196;-89
2022/09/23 05:38:48;;;;;;;5.93;3.30;;;8.70;84.40;;;;;;4977769;28;20213;-90
2022/09/23 05:41:14;;;;;;;4.50;2.90;;;8.70;84.40;;;;;;4977537;28;20573;-90
2022/09/23 05:43:40;;;;;;;3.00;2.70;;;8.80;84.40;;;;;;4977817;28;20232;-89
2022/09/23 05:46:14;;;;;;;5.10;2.43;;;8.80;84.30;;;;;;4978028;28;20269;-91
2022/09/23 05:48:41;;;;;;;5.10;3.10;;;8.80;84.40;;;;;;4977785;28;20182;-90
2022/09/23 05:51:10;;;;;;;7.83;4.27;;;8.80;84.40;;;;;;4977792;28;20229;-89
2022/09/23 05:53:35;;;;;;;5.10;2.67;;;8.80;84.30;;;;;;4977980;28;20189;-91
2022/09/23 05:56:02;;;;;;;3.70;2.73;;;8.80;84.20;;;;;;4977937;28;20265;-90
2022/09/23 05:58:28;;;;;;;5.60;2.87;;;8.80;84.10;;;;;;4977871;28;20182;-90
2022/09/23 06:00:56;;;;;;;3.87;3.00;;;8.80;84.20;;;;;;4977834;28;20562;-90
2022/09/23 06:03:23;;;;;;;5.13;2.50;;;8.80;84.30;;;;;;4978197;28;20165;-89
2022/09/23 06:05:52;;;;;;;5.00;2.70;;;8.80;84.20;;;;;;4995110;28;20568;-90
2022/09/23 06:08:17;;;;;;;4.10;2.93;;;8.80;84.20;;;;;;4977445;28;20224;-90
2022/09/23 06:10:45;;;;;;;5.47;2.83;;;8.80;84.20;;;;;;4977469;28;20561;-90
2022/09/23 06:13:11;;;;;;;3.97;2.70;;;8.80;84.40;;;;;;4978337;28;20652;-89
2022/09/23 06:15:37;;;;;;;3.47;2.70;;;8.80;84.40;;;;;;4977389;28;20180;-90
2022/09/23 06:18:04;;;;;;;3.17;2.60;;;8.80;84.40;;;;;;4977434;28;20189;-90
2022/09/23 06:20:29;;;;;;;5.50;3.10;;;8.80;84.40;;;;;;4977734;28;20202;-91
2022/09/23 06:23:04;;;;;;;5.70;3.07;;;8.80;84.40;;;;;;4978501;28;20220;-90
2022/09/23 06:25:32;;;;;;;3.27;2.40;;;8.80;84.40;;;;;;4978195;28;20185;-90
2022/09/23 06:27:58;;;;;;;6.80;3.30;;;8.80;84.40;;;;;;4978607;28;20174;-90
2022/09/23 06:30:25;;;;;;;4.77;2.80;;;8.80;84.40;;;;;;4995532;28;20281;-90
2022/09/23 06:32:52;;;;;;;4.10;2.70;;;8.80;84.40;;;;;;4976851;28;20225;-88
2022/09/23 06:35:18;;;;;;;2.77;2.43;;;8.80;84.50;;;;;;4994503;28;20257;-89
2022/09/23 06:37:44;;;;;;;7.13;3.73;;;8.80;84.60;;;;;;4978612;28;20639;-88
2022/09/23 06:40:10;;;;;;;6.10;3.00;;;8.90;84.60;;;;;;4979182;28;20292;-89
2022/09/23 06:42:35;;;;;;;5.33;2.80;;;8.90;84.60;;;;;;4977665;28;20205;-89
2022/09/23 06:45:01;;;;;;;4.30;3.00;;;8.90;84.60;;;;;;4994694;28;20170;-88
2022/09/23 06:47:27;;;;;;;8.17;3.00;;;9.00;84.60;;;;;;4976715;28;20280;-88
2022/09/23 06:49:53;;;;;;;6.27;4.00;;;9.00;84.70;;;;;;4976640;28;20185;-90
2022/09/23 06:52:19;;;;;;;7.37;3.50;;;9.00;84.80;;;;;;4993926;28;20252;-90
2022/09/23 06:54:46;;;;;;;3.67;2.73;;;9.00;84.90;;;;;;4993973;28;20178;-89
2022/09/23 06:57:13;;;;;;;4.67;2.93;;;9.10;84.90;;;;;;4976629;28;20281;-90
2022/09/23 06:59:38;;;;;;;6.40;3.50;;;9.20;85.00;;;;;;4976428;28;20237;-90
2022/09/23 07:02:05;;;;;;;3.30;3.00;;;9.30;85.20;;;;;;4993956;28;20244;-89
2022/09/23 07:04:30;;;;;;;4.77;3.07;;;9.40;85.10;;;;;;4976613;28;20181;-88
2022/09/23 07:06:56;;;;;;;4.57;3.20;;;9.50;85.00;;;;;;4976537;28;20181;-89
2022/09/23 07:09:21;;;;;;;3.33;3.00;;;9.60;84.80;;;;;;4976518;28;20185;-89
2022/09/23 07:11:47;;;;;;;5.57;3.10;;;9.80;84.50;;;;;;4993808;28;20340;-89
2022/09/23 07:14:13;;;;;;;5.50;3.20;;;9.80;84.30;;;;;;4976373;28;20177;-89
2022/09/23 07:16:38;;;;;;;3.67;3.03;;;9.90;83.80;;;;;;4976366;28;20175;-89
2022/09/23 07:19:04;;;;;;;3.70;2.87;;;10.00;83.60;;;;;;4976298;28;20316;-89
2022/09/23 07:21:30;;;;;;;6.47;3.23;;;10.20;83.20;;;;;;4993838;28;20194;-89
2022/09/23 07:23:57;;;;;;;6.00;3.27;;;10.30;83.30;;;;;;4993632;28;20633;-89
2022/09/23 07:26:23;;;;;;;8.53;3.00;;;10.40;82.70;;;;;;4976337;28;20181;-88
2022/09/23 07:28:55;;;;;;;6.47;3.27;;;10.50;82.60;;;;;;4993642;28;20178;-89
2022/09/23 07:31:22;;;;;;;3.77;2.97;;;10.60;82.20;;;;;;4993590;28;20202;-89
2022/09/23 07:33:48;;;;;;;4.53;3.00;;;10.70;82.70;;;;;;4976162;28;20178;-89
2022/09/23 07:36:18;;;;;;;4.07;2.80;;;10.70;81.90;;;;;;4993480;28;20204;-89
2022/09/23 07:38:44;;;;;;;3.53;2.70;;;10.80;81.50;;;;;;4976168;28;20206;-89
2022/09/23 07:41:12;;;;;;;5.27;3.33;;;10.90;81.90;;;;;;4976173;28;20209;-89
2022/09/23 07:43:38;;;;;;;3.20;2.77;;;10.80;81.50;;;;;;4976124;28;20182;-89
2022/09/23 07:46:09;;;;;;;4.10;2.63;;;10.80;81.20;;;;;;4979406;28;20301;-89
2022/09/23 07:48:34;;;;;;;2.70;2.50;;;10.90;80.60;;;;;;4979769;28;20261;-89
2022/09/23 07:51:09;;;;;;;8.53;2.63;;;10.90;80.70;;;;;;4997049;28;20201;-89
2022/09/23 07:53:35;;;;;;;5.13;2.90;;;11.00;81.00;;;;;;4979688;28;20169;-90
2022/09/23 07:56:04;;;;;;;5.53;2.90;;;11.00;81.00;;;;;;4996911;28;20170;-89
2022/09/23 07:58:30;;;;;;;5.73;2.80;;;11.00;80.70;;;;;;4979483;28;20253;-89
2022/09/23 08:01:04;;;;;;;3.27;2.67;;;11.00;81.00;;;;;;4979262;28;20281;-89
2022/09/23 08:03:30;;;;;;;3.10;2.57;;;11.10;80.80;;;;;;4980337;28;20170;-89
2022/09/23 08:06:12;;;;;;;5.43;3.27;;;11.10;81.00;;;;;;4979531;28;20691;-88
2022/09/23 08:08:39;;;;;;;2.93;2.47;;;11.20;80.60;;;;;;4979616;28;20174;-89
2022/09/23 08:11:08;;;;;;;7.97;2.90;;;11.30;81.00;;;;;;4996787;28;20329;-89
2022/09/23 08:13:34;;;;;;;3.53;2.80;;;11.40;80.60;;;;;;4979870;28;20564;-91
2022/09/23 08:16:00;;;;;;;5.50;3.23;;;11.40;79.90;;;;;;4996968;28;20177;-89
2022/09/23 08:18:25;;;;;;;3.17;2.70;;;11.60;80.50;;;;;;4997749;28;20582;-89
2022/09/23 08:20:51;;;;;;;9.97;2.80;;;11.70;80.60;;;;;;4979241;28;20256;-89
2022/09/23 08:23:19;;;;;;;4.53;2.40;;;11.90;80.70;;;;;;4979142;28;20209;-89
2022/09/23 08:25:46;;;;;;;4.87;2.67;;;11.90;79.70;;;;;;4979498;28;20245;-89
2022/09/23 08:28:15;;;;;;;5.43;2.77;;;12.00;79.20;;;;;;4979167;28;20186;-89
2022/09/23 08:30:42;;;;;;;3.43;2.33;;;12.20;79.30;;;;;;4979153;28;20209;-89
2022/09/23 08:33:09;;;;;;;5.57;2.70;;;12.30;78.80;;;;;;4979074;28;20622;-90
2022/09/23 08:35:35;;;;;;;3.93;2.70;;;12.40;78.60;;;;;;4996343;28;20205;-89
2022/09/23 08:38:00;;;;;;;5.83;2.57;;;12.50;78.00;;;;;;4978914;28;20186;-89
2022/09/23 08:40:26;;;;;;;5.73;2.87;;;12.70;77.40;;;;;;4978852;28;20225;-90
2022/09/23 08:42:51;;;;;;;4.13;2.63;;;12.80;77.40;;;;;;4979040;28;20557;-90
2022/09/23 08:45:24;;;;;;;4.53;2.63;;;13.00;76.80;;;;;;4978779;28;20178;-89
2022/09/23 08:48:20;;;;;;;2.80;2.23;;;13.10;76.50;;;;;;4997227;28;20170;-89
2022/09/23 08:50:50;;;;;;;6.80;2.87;;;13.20;76.20;;;;;;4976031;28;20567;-90
2022/09/23 08:53:25;;;;;;;5.63;2.37;;;13.40;75.70;;;;;;4978847;28;20176;-88
2022/09/23 08:55:54;;;;;;;5.27;2.30;;;13.40;75.50;;;;;;4978320;28;20220;-88
2022/09/23 08:58:25;;;;;;;4.30;1.93;;;13.50;74.80;;;;;;4978920;28;20182;-90
2022/09/23 09:01:29;;;;;;;5.20;2.50;;;13.50;74.80;;;;;;4978414;28;20206;-89
2022/09/23 09:03:59;;;;;;;2.77;2.27;;;13.60;74.40;;;;;;4978210;28;20671;-90
2022/09/23 09:06:43;;;;;;;9.20;2.80;;;13.70;74.90;;;;;;4978415;28;20173;-89
2022/09/23 09:09:34;;;;;;;3.50;2.33;;;13.60;73.30;;;;;;4979238;28;20273;-89
2022/09/23 09:12:15;;;;;;;3.30;2.07;;;13.70;73.70;;;;;;4995984;28;20205;-89
2022/09/23 09:14:58;;;;;;;6.00;2.33;;;13.80;73.80;;;;;;4978678;28;20200;-89
2022/09/23 09:17:47;;;;;;;3.57;2.30;;;13.90;73.40;;;;;;4995823;28;20181;-89
2022/09/23 09:20:32;;;;;;;2.43;2.03;;;14.10;73.60;;;;;;4977956;28;20221;-90
2022/09/23 09:23:01;;;;;;;5.27;2.50;;;14.20;72.90;;;;;;4978428;28;20284;-90
2022/09/23 09:25:32;;;;;;;6.40;2.30;;;14.30;72.60;;;;;;4995323;28;20174;-90
2022/09/23 09:27:59;;;;;;;2.80;1.93;;;14.40;73.00;;;;;;4977936;28;20162;-90
2022/09/23 09:30:24;;;;;;;6.37;2.40;;;14.50;72.00;;;;;;4978126;28;20182;-89
2022/09/23 09:33:08;;;;;;;3.67;2.43;;;14.60;72.90;;;;;;4977818;28;20727;-90
2022/09/23 09:36:07;;;;;;;13.90;7.57;;;14.70;72.90;;;;;;4995238;28;20194;-89
2022/09/23 09:38:34;;;;;;;4.27;2.50;;;14.70;71.70;;;;;;4995146;28;20162;-89
2022/09/23 09:41:15;;;;;;;9.07;3.23;;;14.80;72.10;;;;;;4977827;28;20178;-89
2022/09/23 09:43:47;;;;;;;5.33;2.30;;;14.80;72.30;;;;;;4978034;28;20327;-89
2022/09/23 09:46:49;;;;;;;5.70;2.70;;;14.80;71.30;;;;;;4977670;28;20204;-89
2022/09/23 09:49:27;;;;;;;4.97;2.37;;;15.00;71.50;;;;;;4977529;28;20181;-90
2022/09/23 09:52:27;;;;;;;5.72;2.00;;;15.10;71.60;;;;;;4977774;28;20671;-89
2022/09/23 09:55:01;;;;;;;4.23;2.30;;;15.30;71.10;;;;;;4953450;28;20190;-91
2022/09/23 09:57:33;;;;;;;4.53;2.10;;;15.50;69.50;;;;;;4978977;28;20260;-91
2022/09/23 10:00:33;;;;;;;6.13;2.53;;;15.50;69.20;;;;;;4994740;28;20232;-89
2022/09/23 10:03:08;;;;;;;5.00;2.40;;;15.80;70.00;;;;;;4977581;28;20205;-89
2022/09/23 10:05:42;;;;;;;4.45;2.30;;;16.00;68.90;;;;;;4977308;28;20173;-89
2022/09/23 10:08:28;;;;;;;3.78;2.15;;;16.20;67.90;;;;;;4976967;28;20212;-88
2022/09/23 10:11:10;;;;;;;5.55;2.28;;;16.20;67.20;;;;;;4977379;28;20636;-88
2022/09/23 10:13:36;;;;;;;4.93;2.15;;;16.20;66.70;;;;;;4994843;28;20201;-89
2022/09/23 10:16:03;;;;;;;6.80;2.20;;;16.20;66.70;;;;;;4977163;28;20182;-89
2022/09/23 10:18:30;;;;;;;4.75;2.22;;;16.10;65.90;;;;;;4977538;28;20178;-87
2022/09/23 10:21:09;;;;;;;4.50;2.30;;;16.20;66.10;;;;;;4994608;28;20170;-89
2022/09/23 10:23:41;;;;;;;5.18;2.00;;;16.20;67.40;;;;;;4977010;28;20706;-89
2022/09/23 10:26:07;;;;;;;4.75;2.10;;;16.30;67.00;;;;;;4976904;28;20185;-89
2022/09/23 10:28:43;;;;;;;5.57;2.53;;;16.30;65.40;;;;;;4976852;28;20558;-89
2022/09/23 10:31:11;;;;;;;4.43;2.10;;;16.40;65.40;;;;;;4994354;28;20195;-90
2022/09/23 10:33:45;;;;;;;7.20;2.30;;;16.50;64.40;;;;;;4994203;28;20166;-89
2022/09/23 10:36:13;;;;;;;3.17;2.08;;;16.50;65.00;;;;;;4995124;28;20157;-88
2022/09/23 10:38:38;;;;;;;4.82;2.53;;;16.40;65.80;;;;;;4994480;28;20174;-89
2022/09/23 10:47:52;;;;;;;3.83;2.50;;;16.40;65.90;;;;;;4994725;28;20168;-89
2022/09/23 10:50:43;;;;;;;4.35;2.33;;;16.50;66.70;;;;;;4979011;28;20180;-89
2022/09/23 10:53:28;;;;;;;4.65;2.55;;;16.40;65.40;;;;;;4994163;28;20158;-89
2022/09/23 10:56:15;;;;;;;6.30;3.00;;;16.50;66.10;;;;;;4976766;28;20174;-88
2022/09/23 10:59:16;;;;;;;5.93;2.33;;;16.50;66.80;;;;;;4993815;28;20667;-88
2022/09/23 11:02:08;;;;;;;7.40;3.03;;;16.30;66.30;;;;;;4994044;28;20615;-88
2022/09/23 11:04:49;;;;;;;3.25;2.03;;;16.40;66.80;;;;;;4976801;28;20166;-87
2022/09/23 11:07:29;;;;;;;2.72;1.95;;;16.50;67.30;;;;;;4994278;28;20219;-90
2022/09/23 11:10:07;;;;;;;5.75;2.33;;;16.40;66.00;;;;;;4994573;28;20194;-90
2022/09/23 11:12:41;;;;;;;5.30;2.38;;;16.50;67.40;;;;;;4994353;28;20197;-91
2022/09/23 11:15:55;;;;;;;12.60;1.95;;;16.50;67.20;;;;;;4977829;28;20531;-91
2022/09/23 11:18:33;;;;;;;4.53;2.20;;;16.60;66.70;;;;;;4994165;28;20189;-90
2022/09/23 11:21:14;;;;;;;6.90;2.05;;;16.70;65.50;;;;;;4980706;28;20181;-87
2022/09/23 11:23:53;;;;;;;3.88;2.20;;;16.80;65.60;;;;;;4981882;28;20170;-90
2022/09/23 11:26:43;;;;;;;2.83;1.85;;;16.80;66.10;;;;;;4980675;28;20309;-91
2022/09/23 11:29:14;;;;;;;4.43;2.35;;;16.80;64.90;;;;;;4980562;28;20170;-90
2022/09/23 11:31:51;;;;;;;3.55;2.13;;;16.90;65.30;;;;;;4998104;28;20276;-91
2022/09/23 11:34:35;;;;;;;5.63;2.40;;;17.00;64.80;;;;;;4980800;28;20169;-90
2022/09/23 11:37:04;;;;;;;3.15;2.15;;;16.90;64.60;;;;;;4998114;28;20192;-90
2022/09/23 11:39:36;;;;;;;6.10;2.47;;;16.90;63.60;;;;;;4980752;28;20217;-89
2022/09/23 11:42:08;;;;;;;2.88;2.10;;;17.00;65.00;;;;;;4980719;28;20197;-90
2022/09/23 11:44:42;;;;;;;4.93;2.30;;;17.00;64.40;;;;;;4980504;28;20167;-89
2022/09/23 11:47:14;;;;;;;6.32;1.70;;;17.00;64.20;;;;;;4980503;28;20165;-91
2022/09/23 11:49:49;;;;;;;3.78;2.13;;;17.20;64.80;;;;;;4997974;28;20166;-90
2022/09/23 11:52:23;;;;;;;3.80;1.95;;;17.00;61.70;;;;;;4997940;28;20208;-91
2022/09/23 11:55:16;;;;;;;4.03;1.80;;;17.10;62.30;;;;;;4980375;28;20167;-90
2022/09/23 11:57:46;;;;;;;5.82;2.17;;;17.20;62.80;;;;;;4981301;28;20241;-90
2022/09/23 12:00:22;;;;;;;2.63;2.08;;;17.20;60.10;;;;;;4980253;28;20202;-90
2022/09/23 12:03:16;;;;;;;2.20;1.73;;;17.40;60.40;;;;;;4998216;28;20209;-90
2022/09/23 12:05:50;;;;;;;3.15;2.10;;;17.60;62.40;;;;;;4980972;28;20174;-90
2022/09/23 12:08:25;;;;;;;3.03;1.88;;;17.70;60.80;;;;;;4980590;28;20548;-90
2022/09/23 12:11:14;;;;;;;5.63;2.10;;;17.80;59.70;;;;;;4980321;28;20162;-91
2022/09/23 12:14:03;;;;;;;9.02;2.03;;;17.80;59.00;;;;;;4997598;28;20158;-91
2022/09/23 12:17:07;;;;;;;3.95;1.80;;;17.80;59.30;;;;;;4980374;28;20625;-91
2022/09/23 12:19:59;;;;;;;6.22;2.03;;;18.00;60.30;;;;;;4937524;28;20228;-91
2022/09/23 12:22:44;;;;;;;4.65;1.77;;;17.90;60.70;;;;;;4997605;28;20273;-92
2022/09/23 12:25:32;;;;;;;2.47;1.60;;;17.70;58.90;;;;;;4980867;28;20169;-91
2022/09/23 12:28:11;;;;;;;3.40;1.73;;;17.60;57.20;;;;;;4982299;28;20170;-91
2022/09/23 12:30:38;;;;;;;2.53;1.85;;;17.50;58.00;;;;;;4979312;28;20170;-91
2022/09/23 12:33:32;;;;;;;2.13;1.50;;;17.60;57.80;;;;;;4996993;28;20198;-91
2022/09/23 12:36:11;;;;;;;2.55;1.77;;;17.60;57.90;;;;;;4977253;28;20182;-91
2022/09/23 12:38:47;;;;;;;4.75;1.80;;;17.50;57.80;;;;;;4980052;28;20177;-91
2022/09/23 12:41:34;;;;;;;4.45;1.67;;;17.60;58.20;;;;;;4979480;28;20228;-90
2022/09/23 12:44:24;;;;;;;3.00;1.40;;;17.50;57.70;;;;;;4979409;28;20233;-91
2022/09/23 12:47:24;;;;;;;2.92;1.70;;;17.60;58.20;;;;;;4997058;28;20169;-89
2022/09/23 12:49:55;;;;;;;3.45;1.85;;;17.60;57.00;;;;;;4979458;28;20201;-90
2022/09/23 12:52:31;;;;;;;2.90;1.40;;;17.50;57.70;;;;;;4996556;28;20186;-91
2022/09/23 12:55:37;;;;;;;2.83;1.60;;;17.40;57.50;;;;;;4979380;28;20201;-91
2022/09/23 12:58:41;;;;;;;3.13;1.65;;;17.40;57.90;;;;;;4965779;28;20228;-91
2022/09/23 13:01:18;;;;;;;3.97;1.52;;;17.40;57.20;;;;;;4997027;28;20390;-91
2022/09/23 13:06:40;;;;;;;3.30;1.77;;;17.40;57.10;;;;;;4997609;28;20176;-91
2022/09/23 13:09:13;;;;;;;6.97;1.75;;;17.40;56.80;;;;;;4996255;28;20182;-91
2022/09/23 13:11:42;;;;;;;1.85;1.63;;;17.40;57.80;;;;;;4979270;28;20249;-91
2022/09/23 13:14:12;;;;;;;4.00;1.50;;;17.40;57.00;;;;;;4997188;28;20197;-91
2022/09/23 13:16:43;;;;;;;2.33;1.35;;;17.40;57.90;;;;;;4979087;28;20182;-91
2022/09/23 13:19:26;;;;;;;2.35;1.65;;;17.40;58.80;;;;;;4978748;28;20233;-91
2022/09/23 13:21:52;;;;;;;3.60;1.83;;;17.40;59.30;;;;;;4978682;28;20690;-91
2022/09/23 13:24:25;;;;;;;4.05;1.60;;;17.40;59.30;;;;;;4978786;28;20190;-90
2022/09/23 13:27:10;;;;;;;3.38;1.35;;;17.50;59.50;;;;;;4979740;28;20174;-91
2022/09/23 13:30:25;;;;;;;2.50;1.40;;;17.50;57.70;;;;;;4996654;28;20245;-91
2022/09/23 13:33:09;;;;;;;1.45;1.30;;;17.40;57.10;;;;;;4972971;28;20580;-91
2022/09/23 13:35:38;;;;;;;4.28;1.55;;;17.50;58.10;;;;;;4979147;28;20205;-89
2022/09/23 13:38:24;;;;;;;3.33;1.20;;;17.60;57.70;;;;;;4978565;28;20178;-91
2022/09/23 13:40:53;;;;;;;2.92;1.42;;;17.70;59.00;;;;;;4978623;28;20198;-91